createdAt,value
2018-02-18T00:04:49.799Z,2.70
2018-02-18T00:09:52.463Z,2.80
2018-02-18T00:15:01.618Z,2.70
2018-02-18T00:20:04.333Z,2.80
2018-02-18T00:25:07.224Z,2.70
2018-02-18T00:30:09.887Z,2.70
2018-02-18T00:35:12.956Z,2.60
2018-02-18T00:40:15.713Z,2.80
2018-02-18T00:45:19.230Z,2.50
2018-02-18T00:50:21.888Z,2.40
2018-02-18T00:55:25.855Z,2.40
2018-02-18T01:00:28.586Z,2.40
2018-02-18T01:05:31.573Z,2.40
2018-02-18T01:10:34.244Z,2.40
2018-02-18T01:15:37.937Z,2.50
2018-02-18T01:20:40.589Z,2.40
2018-02-18T01:25:43.476Z,2.50
2018-02-18T01:30:46.787Z,2.60
2018-02-18T01:35:50.585Z,2.50
2018-02-18T01:40:54.058Z,2.30
2018-02-18T01:45:56.952Z,2.40
2018-02-18T01:50:59.596Z,2.40
2018-02-18T01:56:02.892Z,2.50
2018-02-18T02:01:05.513Z,2.40
2018-02-18T02:06:08.191Z,2.40
2018-02-18T02:11:10.876Z,2.30
2018-02-18T02:16:14.470Z,2.20
2018-02-18T02:21:17.113Z,2.30
2018-02-18T02:26:20.607Z,2.30
2018-02-18T02:31:23.252Z,2.30
2018-02-18T02:36:26.411Z,2.30
2018-02-18T02:41:29.669Z,2.20
2018-02-18T02:46:32.833Z,2.20
2018-02-18T02:51:35.505Z,2.10
2018-02-18T02:56:38.969Z,2.20
2018-02-18T03:01:41.597Z,2.20
2018-02-18T03:06:44.643Z,2.10
2018-02-18T03:11:48.031Z,2.10
2018-02-18T03:16:51.485Z,2.10
2018-02-18T03:21:54.112Z,2.00
2018-02-18T03:26:56.755Z,2.10
2018-02-18T03:31:59.373Z,2.10
2018-02-18T03:37:02.987Z,2.10
2018-02-18T03:42:06.560Z,2.00
2018-02-18T03:47:09.409Z,2.00
2018-02-18T03:52:12.810Z,1.90
2018-02-18T03:57:15.853Z,1.90
2018-02-18T04:02:18.453Z,2.10
2018-02-18T04:07:21.938Z,2.00
2018-02-18T04:12:26.112Z,1.90
2018-02-18T04:17:28.900Z,1.80
2018-02-18T04:22:31.499Z,1.90
2018-02-18T04:27:35.024Z,1.90
2018-02-18T04:32:37.633Z,1.90
2018-02-18T04:37:41.112Z,1.70
2018-02-18T04:42:45.248Z,1.70
2018-02-18T04:47:48.212Z,1.70
2018-02-18T04:52:50.810Z,1.90
2018-02-18T04:57:53.784Z,1.90
2018-02-18T05:02:57.244Z,1.80
2018-02-18T05:08:00.312Z,1.90
2018-02-18T05:13:02.890Z,1.80
2018-02-18T05:18:06.526Z,1.70
2018-02-18T05:23:09.909Z,1.70
2018-02-18T05:28:13.447Z,1.60
2018-02-18T05:33:16.796Z,1.70
2018-02-18T05:38:19.657Z,1.70
2018-02-18T05:43:22.281Z,1.80
2018-02-18T05:48:25.692Z,1.70
2018-02-18T05:53:29.080Z,1.60
2018-02-18T05:58:31.946Z,1.60
2018-02-18T06:03:34.562Z,1.70
2018-02-18T06:08:37.578Z,1.70
2018-02-18T06:13:40.181Z,1.50
2018-02-18T06:18:42.932Z,1.60
2018-02-18T06:23:45.556Z,1.50
2018-02-18T06:28:48.312Z,1.50
2018-02-18T06:33:51.699Z,1.60
2018-02-18T06:38:54.747Z,1.50
2018-02-18T06:43:58.138Z,1.70
2018-02-18T06:49:00.904Z,1.60
2018-02-18T06:54:03.546Z,1.70
2018-02-18T06:59:06.690Z,1.70
2018-02-18T07:04:09.266Z,1.80
2018-02-18T07:09:12.910Z,2.00
2018-02-18T07:14:15.519Z,2.00
2018-02-18T07:19:18.453Z,2.00
2018-02-18T07:24:21.093Z,2.10
2018-02-18T07:29:24.844Z,2.50
2018-02-18T07:34:27.440Z,2.50
2018-02-18T07:39:30.296Z,5.60
2018-02-18T07:44:32.934Z,4.80
2018-02-18T07:49:36.411Z,3.00
2018-02-18T07:54:39.006Z,2.40
2018-02-18T07:59:41.759Z,2.20
2018-02-18T08:04:44.371Z,2.30
2018-02-18T08:09:47.334Z,2.40
2018-02-18T08:14:50.726Z,2.40
2018-02-18T08:19:54.256Z,2.40
2018-02-18T08:24:56.888Z,2.50
2018-02-18T08:30:00.274Z,2.60
2018-02-18T08:35:03.656Z,2.50
2018-02-18T08:40:07.126Z,2.50
2018-02-18T08:45:10.503Z,2.60
2018-02-18T08:50:13.383Z,2.60
2018-02-18T08:55:16.004Z,2.50
2018-02-18T09:00:19.352Z,2.60
2018-02-18T09:05:22.734Z,2.80
2018-02-18T09:10:25.594Z,2.80
2018-02-18T09:15:29.053Z,2.80
2018-02-18T09:20:31.954Z,2.80
2018-02-18T09:25:34.562Z,3.10
2018-02-18T09:30:37.428Z,3.20
2018-02-18T09:35:40.059Z,3.40
2018-02-18T09:40:42.971Z,3.30
2018-02-18T09:45:45.596Z,3.60
2018-02-18T09:50:48.535Z,3.70
2018-02-18T09:55:51.332Z,3.60
2018-02-18T10:00:54.294Z,3.60
2018-02-18T10:05:57.039Z,3.70
2018-02-18T10:11:00.317Z,4.20
2018-02-18T10:16:03.701Z,3.70
2018-02-18T10:21:06.977Z,3.70
2018-02-18T10:26:10.374Z,4.90
2018-02-18T10:31:13.623Z,4.90
2018-02-18T10:36:16.241Z,4.60
2018-02-18T10:41:19.803Z,4.40
2018-02-18T10:46:22.475Z,4.20
2018-02-18T10:51:25.403Z,4.50
2018-02-18T10:56:28.804Z,4.60
2018-02-18T11:01:32.285Z,4.60
2018-02-18T11:06:34.902Z,4.30
2018-02-18T11:11:38.803Z,4.30
2018-02-18T11:16:41.915Z,4.70
2018-02-18T11:21:44.812Z,5.00
2018-02-18T11:26:48.333Z,4.90
2018-02-18T11:31:51.049Z,4.90
2018-02-18T11:36:53.691Z,5.20
2018-02-18T11:41:56.844Z,4.40
2018-02-18T11:47:00.297Z,3.80
2018-02-18T11:52:03.149Z,3.80
2018-02-18T11:57:05.762Z,4.00
2018-02-18T12:02:09.282Z,4.20
2018-02-18T12:07:12.669Z,4.20
2018-02-18T12:12:17.668Z,4.70
2018-02-18T12:17:20.379Z,4.70
2018-02-18T12:22:23.987Z,4.80
2018-02-18T12:27:27.348Z,4.80
2018-02-18T12:32:30.584Z,4.80
2018-02-18T12:37:33.247Z,4.50
2018-02-18T12:42:36.214Z,4.50
2018-02-18T12:47:38.855Z,4.10
2018-02-18T12:52:42.441Z,4.30
2018-02-18T12:57:45.183Z,4.20
2018-02-18T13:02:48.221Z,3.90
2018-02-18T13:07:51.703Z,4.00
2018-02-18T13:12:54.435Z,4.00
2018-02-18T13:17:57.019Z,4.20
2018-02-18T13:22:59.974Z,4.60
2018-02-18T13:28:02.609Z,4.50
2018-02-18T13:33:05.984Z,4.50
2018-02-18T13:38:08.576Z,4.00
2018-02-18T13:43:11.207Z,4.40
2018-02-18T13:48:13.832Z,4.60
2018-02-18T13:53:17.414Z,4.50
2018-02-18T13:58:20.013Z,4.20
2018-02-18T14:03:22.774Z,4.40
2018-02-18T14:08:26.152Z,4.40
2018-02-18T14:13:29.134Z,4.40
2018-02-18T14:18:31.732Z,4.40
2018-02-18T14:23:35.115Z,4.20
2018-02-18T14:28:38.520Z,3.80
2018-02-18T14:33:43.396Z,3.90
2018-02-18T14:38:46.788Z,4.00
2018-02-18T14:44:03.493Z,3.70
2018-02-18T14:49:18.067Z,3.80
2018-02-18T14:59:57.659Z,4.00
2018-02-18T15:05:00.474Z,3.80
2018-02-18T15:10:03.140Z,3.70
2018-02-18T15:15:06.295Z,3.60
2018-02-18T15:20:08.925Z,3.50
2018-02-18T15:25:13.120Z,3.50
2018-02-18T15:30:15.726Z,3.50
2018-02-18T15:35:19.191Z,3.60
2018-02-18T15:40:21.843Z,3.50
2018-02-18T15:45:24.696Z,3.40
2018-02-18T15:50:27.291Z,3.30
2018-02-18T15:55:30.256Z,3.30
2018-02-18T16:00:32.880Z,3.40
2018-02-18T16:05:36.591Z,3.20
2018-02-18T16:10:39.223Z,3.20
2018-02-18T16:15:42.723Z,3.20
2018-02-18T16:20:46.127Z,3.30
2018-02-18T16:25:48.749Z,3.20
2018-02-18T16:30:52.125Z,2.90
2018-02-18T16:35:55.095Z,2.90
2018-02-18T16:40:57.711Z,3.10
2018-02-18T16:46:01.310Z,3.00
2018-02-18T16:51:03.899Z,3.10
2018-02-18T16:56:07.412Z,3.00
2018-02-18T17:01:10.808Z,3.00
2018-02-18T17:06:14.327Z,3.00
2018-02-18T17:11:16.960Z,3.00
2018-02-18T17:16:20.042Z,3.00
2018-02-18T17:21:23.395Z,2.70
2018-02-18T17:26:26.342Z,2.70
2018-02-18T17:31:30.082Z,2.70
2018-02-18T17:36:34.554Z,2.90
2018-02-18T17:41:37.253Z,2.80
2018-02-18T17:46:40.152Z,2.90
2018-02-18T17:51:42.854Z,2.70
2018-02-18T17:56:45.959Z,2.70
2018-02-18T18:01:49.097Z,2.60
2018-02-18T18:06:51.894Z,2.70
2018-02-18T18:11:54.681Z,3.00
2018-02-18T18:16:58.340Z,2.80
2018-02-18T18:22:01.203Z,2.70
2018-02-18T18:27:04.650Z,2.60
2018-02-18T18:32:08.450Z,2.40
2018-02-18T18:37:11.655Z,2.40
2018-02-18T18:42:14.568Z,2.60
2018-02-18T18:47:17.944Z,2.70
2018-02-18T18:52:20.847Z,2.40
2018-02-18T18:57:23.984Z,2.30
2018-02-18T19:02:29.488Z,2.70
2018-02-18T19:07:33.089Z,2.60
2018-02-18T19:12:35.993Z,2.70
2018-02-18T19:17:39.630Z,2.60
2018-02-18T19:22:42.246Z,2.40
2018-02-18T19:27:45.513Z,2.30
2018-02-18T19:32:49.104Z,2.10
2018-02-18T19:37:51.988Z,2.10
2018-02-18T19:42:54.751Z,2.10
2018-02-18T19:47:57.890Z,2.10
2018-02-18T19:53:00.734Z,2.30
2018-02-18T19:58:04.306Z,2.40
2018-02-18T20:03:07.180Z,2.30
2018-02-18T20:08:10.911Z,2.30
2018-02-18T20:13:14.486Z,2.40
2018-02-18T20:18:18.082Z,2.40
2018-02-18T20:23:20.713Z,2.40
2018-02-18T20:28:23.907Z,2.20
2018-02-18T20:33:26.505Z,2.20
2018-02-18T20:38:29.274Z,2.10
2018-02-18T20:43:31.895Z,2.10
2018-02-18T20:48:35.605Z,2.20
2018-02-18T20:53:38.378Z,2.20
2018-02-18T20:58:41.597Z,2.10
2018-02-18T21:03:45.014Z,1.30
2018-02-18T21:08:47.808Z,1.30
2018-02-18T21:13:51.196Z,1.00
2018-02-18T21:18:54.761Z,0.90
2018-02-18T21:23:57.664Z,0.80
2018-02-18T21:29:01.912Z,0.50
2018-02-18T21:34:04.607Z,0.50
2018-02-18T21:39:08.023Z,0.40
2018-02-18T21:44:11.030Z,0.20
2018-02-18T21:49:14.244Z,0.10
2018-02-18T21:54:16.885Z,0.00
2018-02-18T21:59:20.362Z,0.00
2018-02-18T22:04:23.129Z,0.10
2018-02-18T22:09:26.786Z,-0.10
2018-02-18T22:14:29.440Z,-0.20
2018-02-18T22:19:32.871Z,-0.30
2018-02-18T22:24:35.603Z,-0.40
2018-02-18T22:29:38.746Z,-0.40
2018-02-18T22:34:42.052Z,-0.50
2018-02-18T22:39:45.864Z,-0.50
2018-02-18T22:44:48.795Z,-0.60
2018-02-18T22:49:52.479Z,-0.40
2018-02-18T22:54:56.103Z,-0.30
2018-02-18T22:59:59.747Z,-0.40
2018-02-18T23:05:08.029Z,-0.40
2018-02-18T23:10:10.861Z,-0.40
2018-02-18T23:15:13.665Z,-0.30
2018-02-18T23:20:16.930Z,-0.40
2018-02-18T23:25:19.589Z,-0.30
2018-02-18T23:30:23.036Z,-0.30
2018-02-18T23:35:25.657Z,0.00
2018-02-18T23:40:29.314Z,-0.10
2018-02-18T23:45:32.014Z,0.00
2018-02-18T23:50:37.570Z,0.10
2018-02-18T23:55:40.256Z,0.00
